sensor_id;sensor_type;location;lat;lon;timestamp;pressure;altitude;pressure_sealevel;temperature;humidity
18765;BME280;9511;54.242;12.448;2023-11-19T04:05:25;100584.59;;;2.93;100.00
18765;BME280;9511;54.242;12.448;2023-11-19T04:07:53;100563.84;;;2.97;100.00
18765;BME280;9511;54.242;12.448;2023-11-19T04:10:20;100564.84;;;2.99;100.00
18765;BME280;9511;54.242;12.448;2023-11-19T04:12:48;100563.84;;;2.97;100.00
18765;BME280;9511;54.242;12.448;2023-11-19T04:15:16;100556.91;;;2.97;100.00
18765;BME280;9511;54.242;12.448;2023-11-19T04:17:43;100554.41;;;2.99;100.00
18765;BME280;9511;54.242;12.448;2023-11-19T04:20:11;100555.28;;;2.99;100.00
18765;BME280;9511;54.242;12.448;2023-11-19T04:22:40;100555.50;;;3.04;100.00
18765;BME280;9511;54.242;12.448;2023-11-19T04:25:08;100551.09;;;3.03;100.00
18765;BME280;9511;54.242;12.448;2023-11-19T04:27:35;100547.53;;;3.01;100.00
18765;BME280;9511;54.242;12.448;2023-11-19T04:30:03;100543.25;;;3.03;100.00
18765;BME280;9511;54.242;12.448;2023-11-19T04:32:31;100530.06;;;3.00;100.00
18765;BME280;9511;54.242;12.448;2023-11-19T04:34:58;100514.69;;;3.06;100.00
18765;BME280;9511;54.242;12.448;2023-11-19T04:37:26;100516.47;;;3.07;100.00
18765;BME280;9511;54.242;12.448;2023-11-19T04:39:54;100502.75;;;3.11;100.00
18765;BME280;9511;54.242;12.448;2023-11-19T04:42:22;100482.88;;;3.14;100.00
18765;BME280;9511;54.242;12.448;2023-11-19T04:44:50;100478.25;;;3.09;100.00
18765;BME280;9511;54.242;12.448;2023-11-19T04:47:17;100483.47;;;3.09;100.00
18765;BME280;9511;54.242;12.448;2023-11-19T04:49:44;100488.69;;;3.09;100.00
18765;BME280;9511;54.242;12.448;2023-11-19T04:52:12;100489.75;;;3.12;100.00
18765;BME280;9511;54.242;12.448;2023-11-19T04:54:43;100473.00;;;3.09;100.00
18765;BME280;9511;54.242;12.448;2023-11-19T04:57:11;100471.53;;;3.14;100.00
18765;BME280;9511;54.242;12.448;2023-11-19T04:59:39;100465.66;;;3.18;100.00
18765;BME280;9511;54.242;12.448;2023-11-19T05:02:08;100453.53;;;3.20;100.00
18765;BME280;9511;54.242;12.448;2023-11-19T05:04:35;100447.19;;;3.15;100.00
18765;BME280;9511;54.242;12.448;2023-11-19T05:07:03;100452.41;;;3.15;100.00
18765;BME280;9511;54.242;12.448;2023-11-19T05:09:31;100456.84;;;3.16;100.00
18765;BME280;9511;54.242;12.448;2023-11-19T05:11:58;100458.56;;;3.15;100.00
18765;BME280;9511;54.242;12.448;2023-11-19T05:14:27;100464.00;;;3.20;100.00
18765;BME280;9511;54.242;12.448;2023-11-19T05:16:54;100449.00;;;3.16;100.00
18765;BME280;9511;54.242;12.448;2023-11-19T05:19:22;100429.97;;;3.18;100.00
18765;BME280;9511;54.242;12.448;2023-11-19T05:21:49;100424.59;;;3.15;100.00
18765;BME280;9511;54.242;12.448;2023-11-19T05:24:18;100408.81;;;3.14;100.00
18765;BME280;9511;54.242;12.448;2023-11-19T05:26:45;100411.38;;;3.12;100.00
18765;BME280;9511;54.242;12.448;2023-11-19T05:29:13;100395.63;;;3.11;100.00
18765;BME280;9511;54.242;12.448;2023-11-19T05:31:42;100374.84;;;3.14;100.00
18765;BME280;9511;54.242;12.448;2023-11-19T05:34:09;100394.78;;;3.12;100.00
18765;BME280;9511;54.242;12.448;2023-11-19T05:36:37;100401.97;;;3.16;100.00
18765;BME280;9511;54.242;12.448;2023-11-19T05:39:05;100422.72;;;3.13;100.00
18765;BME280;9511;54.242;12.448;2023-11-19T05:41:32;100427.34;;;3.18;100.00
18765;BME280;9511;54.242;12.448;2023-11-19T05:44:00;100421.06;;;3.15;100.00
18765;BME280;9511;54.242;12.448;2023-11-19T05:46:27;100396.81;;;3.17;100.00
18765;BME280;9511;54.242;12.448;2023-11-19T05:48:56;100382.91;;;3.18;100.00
18765;BME280;9511;54.242;12.448;2023-11-19T05:51:23;100366.41;;;3.19;100.00
18765;BME280;9511;54.242;12.448;2023-11-19T05:53:51;100348.94;;;3.18;100.00
18765;BME280;9511;54.242;12.448;2023-11-19T05:56:19;100342.81;;;3.18;100.00
18765;BME280;9511;54.242;12.448;2023-11-19T05:58:47;100346.25;;;3.17;100.00
18765;BME280;9511;54.242;12.448;2023-11-19T06:01:15;100348.03;;;3.18;100.00
18765;BME280;9511;54.242;12.448;2023-11-19T06:03:43;100356.84;;;3.20;100.00
18765;BME280;9511;54.242;12.448;2023-11-19T06:06:16;100360.44;;;3.22;100.00
18765;BME280;9511;54.242;12.448;2023-11-19T06:08:44;100356.19;;;3.24;100.00
18765;BME280;9511;54.242;12.448;2023-11-19T06:11:11;100354.44;;;3.25;100.00
18765;BME280;9511;54.242;12.448;2023-11-19T06:13:44;100348.34;;;3.24;100.00
18765;BME280;9511;54.242;12.448;2023-11-19T06:16:12;100340.50;;;3.24;100.00
18765;BME280;9511;54.242;12.448;2023-11-19T06:18:39;100322.19;;;3.24;100.00
18765;BME280;9511;54.242;12.448;2023-11-19T06:21:07;100303.84;;;3.23;100.00
18765;BME280;9511;54.242;12.448;2023-11-19T06:23:36;100299.63;;;3.26;100.00
18765;BME280;9511;54.242;12.448;2023-11-19T06:26:04;100298.75;;;3.26;100.00
18765;BME280;9511;54.242;12.448;2023-11-19T06:28:32;100287.53;;;3.28;100.00
18765;BME280;9511;54.242;12.448;2023-11-19T06:30:59;100297.78;;;3.24;100.00
18765;BME280;9511;54.242;12.448;2023-11-19T06:33:26;100311.59;;;3.21;100.00
18765;BME280;9511;54.242;12.448;2023-11-19T06:35:54;100314.34;;;3.24;100.00
18765;BME280;9511;54.242;12.448;2023-11-19T06:38:21;100312.63;;;3.25;100.00
18765;BME280;9511;54.242;12.448;2023-11-19T06:40:50;100303.91;;;3.24;100.00
18765;BME280;9511;54.242;12.448;2023-11-19T06:43:17;100294.56;;;3.29;100.00
18765;BME280;9511;54.242;12.448;2023-11-19T06:45:44;100299.78;;;3.29;100.00
18765;BME280;9511;54.242;12.448;2023-11-19T06:48:12;100294.56;;;3.29;100.00
18765;BME280;9511;54.242;12.448;2023-11-19T06:50:39;100280.44;;;3.26;100.00
18765;BME280;9511;54.242;12.448;2023-11-19T06:53:06;100272.59;;;3.26;100.00
18765;BME280;9511;54.242;12.448;2023-11-19T06:55:36;100279.44;;;3.22;100.00
18765;BME280;9511;54.242;12.448;2023-11-19T06:58:05;100283.28;;;3.30;100.00
18765;BME280;9511;54.242;12.448;2023-11-19T07:00:33;100288.56;;;3.32;100.00
18765;BME280;9511;54.242;12.448;2023-11-19T07:03:02;100280.03;;;3.36;100.00
18765;BME280;9511;54.242;12.448;2023-11-19T07:05:29;100282.59;;;3.34;100.00
18765;BME280;9511;54.242;12.448;2023-11-19T07:07:57;100291.41;;;3.36;100.00
18765;BME280;9511;54.242;12.448;2023-11-19T07:10:25;100299.31;;;3.38;100.00
18765;BME280;9511;54.242;12.448;2023-11-19T07:12:52;100294.00;;;3.36;100.00
18765;BME280;9511;54.242;12.448;2023-11-19T07:15:21;100296.63;;;3.36;100.00
18765;BME280;9511;54.242;12.448;2023-11-19T07:17:48;100291.13;;;3.30;100.00
18765;BME280;9511;54.242;12.448;2023-11-19T07:20:16;100287.06;;;3.37;100.00
18765;BME280;9511;54.242;12.448;2023-11-19T07:22:43;100286.16;;;3.36;100.00
18765;BME280;9511;54.242;12.448;2023-11-19T07:25:12;100283.56;;;3.36;100.00
18765;BME280;9511;54.242;12.448;2023-11-19T07:27:40;100288.78;;;3.36;100.00
18765;BME280;9511;54.242;12.448;2023-11-19T07:30:07;100283.56;;;3.36;100.00
18765;BME280;9511;54.242;12.448;2023-11-19T07:32:36;100277.38;;;3.34;100.00
18765;BME280;9511;54.242;12.448;2023-11-19T07:35:05;100260.78;;;3.34;100.00
18765;BME280;9511;54.242;12.448;2023-11-19T07:37:33;100251.34;;;3.37;100.00
18765;BME280;9511;54.242;12.448;2023-11-19T07:40:00;100250.47;;;3.37;100.00
18765;BME280;9511;54.242;12.448;2023-11-19T07:42:28;100246.75;;;3.32;100.00
18765;BME280;9511;54.242;12.448;2023-11-19T07:44:55;100253.28;;;3.41;100.00
18765;BME280;9511;54.242;12.448;2023-11-19T07:47:23;100254.94;;;3.39;100.00
18765;BME280;9511;54.242;12.448;2023-11-19T07:49:51;100246.22;;;3.39;100.00
18765;BME280;9511;54.242;12.448;2023-11-19T07:52:19;100236.03;;;3.45;100.00
18765;BME280;9511;54.242;12.448;2023-11-19T07:54:47;100225.75;;;3.50;100.00
18765;BME280;9511;54.242;12.448;2023-11-19T07:57:14;100235.41;;;3.51;100.00
18765;BME280;9511;54.242;12.448;2023-11-19T07:59:42;100261.56;;;3.51;100.00
18765;BME280;9511;54.242;12.448;2023-11-19T08:02:09;100258.94;;;3.51;100.00
18765;BME280;9511;54.242;12.448;2023-11-19T08:04:36;100224.13;;;3.52;100.00
18765;BME280;9511;54.242;12.448;2023-11-19T08:07:07;100232.03;;;3.53;100.00
18765;BME280;9511;54.242;12.448;2023-11-19T08:09:34;100236.22;;;3.50;100.00
18765;BME280;9511;54.242;12.448;2023-11-19T08:12:02;100203.41;;;3.56;100.00
18765;BME280;9511;54.242;12.448;2023-11-19T08:14:29;100186.41;;;3.46;100.00
18765;BME280;9511;54.242;12.448;2023-11-19T08:16:56;100155.03;;;3.46;100.00
18765;BME280;9511;54.242;12.448;2023-11-19T08:19:24;100128.06;;;3.47;100.00
18765;BME280;9511;54.242;12.448;2023-11-19T08:21:51;100149.75;;;3.45;100.00
18765;BME280;9511;54.242;12.448;2023-11-19T08:24:20;100175.19;;;3.49;100.00
18765;BME280;9511;54.242;12.448;2023-11-19T08:26:47;100191.69;;;3.48;100.00
18765;BME280;9511;54.242;12.448;2023-11-19T08:29:15;100191.84;;;3.51;100.00
18765;BME280;9511;54.242;12.448;2023-11-19T08:31:42;100193.63;;;3.52;100.00
18765;BME280;9511;54.242;12.448;2023-11-19T08:34:10;100196.19;;;3.51;100.00
18765;BME280;9511;54.242;12.448;2023-11-19T08:36:38;100170.16;;;3.54;100.00
18765;BME280;9511;54.242;12.448;2023-11-19T08:39:05;100182.41;;;3.55;100.00
18765;BME280;9511;54.242;12.448;2023-11-19T08:41:36;100176.44;;;3.57;100.00
18765;BME280;9511;54.242;12.448;2023-11-19T08:44:04;100165.97;;;3.57;100.00
18765;BME280;9511;54.242;12.448;2023-11-19T08:46:31;100170.44;;;3.60;100.00
18765;BME280;9511;54.242;12.448;2023-11-19T08:48:59;100156.66;;;3.64;100.00
18765;BME280;9511;54.242;12.448;2023-11-19T08:51:26;100154.88;;;3.63;100.00
18765;BME280;9511;54.242;12.448;2023-11-19T08:53:54;100154.09;;;3.65;100.00
18765;BME280;9511;54.242;12.448;2023-11-19T08:56:21;100145.38;;;3.65;100.00
18765;BME280;9511;54.242;12.448;2023-11-19T08:58:50;100143.69;;;3.67;100.00
18765;BME280;9511;54.242;12.448;2023-11-19T09:01:17;100137.31;;;3.60;100.00
18765;BME280;9511;54.242;12.448;2023-11-19T09:03:44;100151.28;;;3.61;100.00
18765;BME280;9511;54.242;12.448;2023-11-19T09:06:12;100152.25;;;3.63;100.00
18765;BME280;9511;54.242;12.448;2023-11-19T09:08:39;100156.78;;;3.67;100.00
18765;BME280;9511;54.242;12.448;2023-11-19T09:11:07;100151.75;;;3.71;100.00
18765;BME280;9511;54.242;12.448;2023-11-19T09:13:35;100151.69;;;3.70;100.00
18765;BME280;9511;54.242;12.448;2023-11-19T09:16:04;100140.53;;;3.74;100.00
18765;BME280;9511;54.242;12.448;2023-11-19T09:18:31;100159.69;;;3.73;100.00
18765;BME280;9511;54.242;12.448;2023-11-19T09:20:59;100150.28;;;3.78;100.00
18765;BME280;9511;54.242;12.448;2023-11-19T09:23:26;100150.28;;;3.78;100.00
18765;BME280;9511;54.242;12.448;2023-11-19T09:25:55;100148.66;;;3.80;100.00
18765;BME280;9511;54.242;12.448;2023-11-19T09:28:22;100142.53;;;3.80;100.00
18765;BME280;9511;54.242;12.448;2023-11-19T09:30:49;100134.16;;;3.88;100.00
18765;BME280;9511;54.242;12.448;2023-11-19T09:33:18;100131.53;;;3.88;100.00
18765;BME280;9511;54.242;12.448;2023-11-19T09:35:48;100134.34;;;3.93;100.00
18765;BME280;9511;54.242;12.448;2023-11-19T09:38:18;100122.03;;;3.90;100.00
18765;BME280;9511;54.242;12.448;2023-11-19T09:40:45;100127.19;;;3.89;100.00
18765;BME280;9511;54.242;12.448;2023-11-19T09:43:14;100112.38;;;3.89;100.00
18765;BME280;9511;54.242;12.448;2023-11-19T09:45:48;100116.88;;;3.92;100.00
18765;BME280;9511;54.242;12.448;2023-11-19T09:48:18;100125.66;;;3.94;100.00
18765;BME280;9511;54.242;12.448;2023-11-19T09:50:47;100124.91;;;3.96;100.00
18765;BME280;9511;54.242;12.448;2023-11-19T09:53:14;100123.63;;;4.08;100.00
18765;BME280;9511;54.242;12.448;2023-11-19T09:55:42;100107.78;;;4.05;100.00
18765;BME280;9511;54.242;12.448;2023-11-19T09:58:12;100102.78;;;4.11;100.00
18765;BME280;9511;54.242;12.448;2023-11-19T10:00:40;100097.69;;;4.14;100.00
18765;BME280;9511;54.242;12.448;2023-11-19T10:03:10;100094.25;;;4.15;100.00
18765;BME280;9511;54.242;12.448;2023-11-19T10:05:39;100086.38;;;4.15;100.00
18765;BME280;9511;54.242;12.448;2023-11-19T10:08:07;100080.56;;;4.22;100.00
18765;BME280;9511;54.242;12.448;2023-11-19T10:10:37;100075.47;;;4.25;100.00
18765;BME280;9511;54.242;12.448;2023-11-19T10:13:04;100075.56;;;4.28;100.00
18765;BME280;9511;54.242;12.448;2023-11-19T10:15:35;100073.13;;;4.33;100.00
18765;BME280;9511;54.242;12.448;2023-11-19T10:18:03;100080.97;;;4.33;100.00
18765;BME280;9511;54.242;12.448;2023-11-19T10:20:35;100071.59;;;4.38;100.00
18765;BME280;9511;54.242;12.448;2023-11-19T10:23:04;100069.16;;;4.42;100.00
18765;BME280;9511;54.242;12.448;2023-11-19T10:25:32;100064.13;;;4.48;100.00
18765;BME280;9511;54.242;12.448;2023-11-19T10:28:00;100062.41;;;4.49;100.00
18765;BME280;9511;54.242;12.448;2023-11-19T10:30:29;100061.53;;;4.48;100.00
18765;BME280;9511;54.242;12.448;2023-11-19T10:33:04;100051.28;;;4.55;100.00
18765;BME280;9511;54.242;12.448;2023-11-19T10:35:33;100046.09;;;4.56;100.00
18765;BME280;9511;54.242;12.448;2023-11-19T10:38:01;100061.00;;;4.59;100.00
18765;BME280;9511;54.242;12.448;2023-11-19T10:40:39;100050.78;;;4.65;100.00
18765;BME280;9511;54.242;12.448;2023-11-19T10:43:07;100049.47;;;4.76;100.00
18765;BME280;9511;54.242;12.448;2023-11-19T10:45:35;100043.44;;;4.78;100.00
18765;BME280;9511;54.242;12.448;2023-11-19T10:48:04;100042.97;;;4.90;100.00
18765;BME280;9511;54.242;12.448;2023-11-19T10:50:33;100037.06;;;4.96;100.00
18765;BME280;9511;54.242;12.448;2023-11-19T10:53:01;100035.47;;;4.99;100.00
18765;BME280;9511;54.242;12.448;2023-11-19T10:55:30;100031.09;;;5.00;100.00
18765;BME280;9511;54.242;12.448;2023-11-19T10:58:00;100027.91;;;5.09;100.00
18765;BME280;9511;54.242;12.448;2023-11-19T11:00:30;100024.66;;;5.16;100.00
18765;BME280;9511;54.242;12.448;2023-11-19T11:03:00;100035.47;;;5.25;100.00
18765;BME280;9511;54.242;12.448;2023-11-19T11:05:29;100026.97;;;5.32;100.00
18765;BME280;9511;54.242;12.448;2023-11-19T11:08:00;100014.25;;;5.44;100.00
18765;BME280;9511;54.242;12.448;2023-11-19T11:10:28;100008.28;;;5.48;100.00
18765;BME280;9511;54.242;12.448;2023-11-19T11:13:00;100008.47;;;5.54;100.00
18765;BME280;9511;54.242;12.448;2023-11-19T11:15:30;100004.31;;;5.61;100.00
18765;BME280;9511;54.242;12.448;2023-11-19T11:18:00;100004.59;;;5.69;100.00
18765;BME280;9511;54.242;12.448;2023-11-19T11:20:29;99997.78;;;5.74;100.00
18765;BME280;9511;54.242;12.448;2023-11-19T11:26:23;99995.09;;;5.99;100.00
18765;BME280;9511;54.242;12.448;2023-11-19T11:28:58;100002.69;;;6.19;100.00
18765;BME280;9511;54.242;12.448;2023-11-19T11:31:36;99989.25;;;6.38;100.00
18765;BME280;9511;54.242;12.448;2023-11-19T11:37:06;99989.34;;;7.04;100.00
18765;BME280;9511;54.242;12.448;2023-11-19T11:39:40;99995.22;;;7.27;100.00
18765;BME280;9511;54.242;12.448;2023-11-19T11:42:34;99983.34;;;7.43;100.00
18765;BME280;9511;54.242;12.448;2023-11-19T11:45:05;100002.22;;;7.61;100.00
18765;BME280;9511;54.242;12.448;2023-11-19T11:50:50;99991.72;;;7.99;100.00
18765;BME280;9511;54.242;12.448;2023-11-19T11:53:19;99987.50;;;8.07;100.00
18765;BME280;9511;54.242;12.448;2023-11-19T11:55:56;99994.72;;;8.14;100.00
18765;BME280;9511;54.242;12.448;2023-11-19T11:58:32;99985.13;;;8.18;100.00
18765;BME280;9511;54.242;12.448;2023-11-19T12:01:03;99982.50;;;8.18;100.00
18765;BME280;9511;54.242;12.448;2023-11-19T12:03:32;99981.75;;;8.23;100.00
18765;BME280;9511;54.242;12.448;2023-11-19T12:05:59;99971.22;;;8.25;100.00
18765;BME280;9511;54.242;12.448;2023-11-19T12:08:28;99982.09;;;8.37;100.00
18765;BME280;9511;54.242;12.448;2023-11-19T12:10:58;99978.00;;;8.53;100.00
18765;BME280;9511;54.242;12.448;2023-11-19T12:13:46;99973.72;;;8.58;100.00
18765;BME280;9511;54.242;12.448;2023-11-19T12:16:15;99977.41;;;8.66;100.00
18765;BME280;9511;54.242;12.448;2023-11-19T12:18:43;99981.09;;;8.76;100.00
18765;BME280;9511;54.242;12.448;2023-11-19T12:21:09;99976.94;;;8.89;100.00
18765;BME280;9511;54.242;12.448;2023-11-19T12:23:44;99986.00;;;9.01;100.00
18765;BME280;9511;54.242;12.448;2023-11-19T12:26:36;99982.63;;;9.10;100.00
18765;BME280;9511;54.242;12.448;2023-11-19T12:29:04;99983.69;;;9.20;100.00
18765;BME280;9511;54.242;12.448;2023-11-19T12:31:36;99983.81;;;9.27;100.00
18765;BME280;9511;54.242;12.448;2023-11-19T12:34:08;99979.63;;;9.39;100.00
18765;BME280;9511;54.242;12.448;2023-11-19T12:36:41;99987.75;;;9.51;100.00
18765;BME280;9511;54.242;12.448;2023-11-19T12:39:09;99993.19;;;9.60;100.00
18765;BME280;9511;54.242;12.448;2023-11-19T12:41:51;99989.00;;;9.74;100.00
18765;BME280;9511;54.242;12.448;2023-11-19T12:44:19;99997.19;;;9.91;100.00
18765;BME280;9511;54.242;12.448;2023-11-19T12:46:59;99991.19;;;10.00;100.00
18765;BME280;9511;54.242;12.448;2023-11-19T12:49:26;99987.72;;;10.04;100.00
18765;BME280;9511;54.242;12.448;2023-11-19T12:51:54;99986.00;;;10.09;100.00
18765;BME280;9511;54.242;12.448;2023-11-19T12:54:32;99981.59;;;10.08;100.00
18765;BME280;9511;54.242;12.448;2023-11-19T12:56:59;99995.75;;;10.11;100.00
18765;BME280;9511;54.242;12.448;2023-11-19T12:59:26;99986.06;;;10.12;100.00
18765;BME280;9511;54.242;12.448;2023-11-19T13:01:56;99988.72;;;10.14;100.00
18765;BME280;9511;54.242;12.448;2023-11-19T13:04:27;99992.34;;;10.19;100.00
18765;BME280;9511;54.242;12.448;2023-11-19T13:06:56;99990.69;;;10.24;100.00
18765;BME280;9511;54.242;12.448;2023-11-19T13:09:24;99991.47;;;10.20;100.00
18765;BME280;9511;54.242;12.448;2023-11-19T13:11:52;99990.53;;;10.16;100.00
18765;BME280;9511;54.242;12.448;2023-11-19T13:14:20;99990.50;;;10.15;100.00
18765;BME280;9511;54.242;12.448;2023-11-19T13:16:47;99981.78;;;10.20;100.00
18765;BME280;9511;54.242;12.448;2023-11-19T13:19:16;99990.69;;;10.24;100.00
18765;BME280;9511;54.242;12.448;2023-11-19T13:21:45;99982.88;;;10.33;100.00
18765;BME280;9511;54.242;12.448;2023-11-19T13:24:13;99991.63;;;10.27;100.00
18765;BME280;9511;54.242;12.448;2023-11-19T13:26:40;99990.69;;;10.24;100.00
18765;BME280;9511;54.242;12.448;2023-11-19T13:29:08;99985.34;;;10.22;100.00
18765;BME280;9511;54.242;12.448;2023-11-19T13:31:36;99992.47;;;10.26;100.00
18765;BME280;9511;54.242;12.448;2023-11-19T13:34:04;99996.84;;;10.24;100.00
18765;BME280;9511;54.242;12.448;2023-11-19T13:36:34;99999.50;;;10.24;100.00
18765;BME280;9511;54.242;12.448;2023-11-19T13:39:02;100003.91;;;10.25;100.00
18765;BME280;9511;54.242;12.448;2023-11-19T13:41:29;100008.25;;;10.22;100.00
18765;BME280;9511;54.242;12.448;2023-11-19T13:43:57;99997.63;;;10.19;100.00
18765;BME280;9511;54.242;12.448;2023-11-19T13:46:24;100001.13;;;10.18;100.00
18765;BME280;9511;54.242;12.448;2023-11-19T13:48:52;100008.13;;;10.14;100.00
18765;BME280;9511;54.242;12.448;2023-11-19T13:51:19;100001.16;;;10.19;100.00
18765;BME280;9511;54.242;12.448;2023-11-19T13:53:48;100005.53;;;10.17;100.00
18765;BME280;9511;54.242;12.448;2023-11-19T13:56:16;100002.00;;;10.17;100.00
18765;BME280;9511;54.242;12.448;2023-11-19T13:58:44;99998.47;;;10.16;100.00
18765;BME280;9511;54.242;12.448;2023-11-19T14:01:11;100010.81;;;10.16;100.00
18765;BME280;9511;54.242;12.448;2023-11-19T14:03:39;100006.41;;;10.16;100.00
18765;BME280;9511;54.242;12.448;2023-11-19T14:06:08;100014.34;;;10.16;100.00
18765;BME280;9511;54.242;12.448;2023-11-19T14:08:35;100024.91;;;10.16;100.00
18765;BME280;9511;54.242;12.448;2023-11-19T14:11:05;100008.09;;;10.13;100.00
18765;BME280;9511;54.242;12.448;2023-11-19T14:13:32;100001.03;;;10.11;100.00
18765;BME280;9511;54.242;12.448;2023-11-19T14:16:00;100013.34;;;10.09;100.00
18765;BME280;9511;54.242;12.448;2023-11-19T14:18:28;100015.13;;;10.10;100.00
18765;BME280;9511;54.242;12.448;2023-11-19T14:20:55;100027.47;;;10.11;100.00
18765;BME280;9511;54.242;12.448;2023-11-19T14:23:22;100028.25;;;10.06;100.00
18765;BME280;9511;54.242;12.448;2023-11-19T14:25:51;100021.28;;;10.09;100.00
18765;BME280;9511;54.242;12.448;2023-11-19T14:28:20;100022.13;;;10.08;100.00
18765;BME280;9511;54.242;12.448;2023-11-19T14:30:48;100036.19;;;10.06;100.00
18765;BME280;9511;54.242;12.448;2023-11-19T14:33:20;100020.31;;;10.04;100.00
18765;BME280;9511;54.242;12.448;2023-11-19T14:35:47;100021.16;;;10.02;100.00
18765;BME280;9511;54.242;12.448;2023-11-19T14:38:15;100028.25;;;10.04;100.00
18765;BME280;9511;54.242;12.448;2023-11-19T14:40:42;100024.72;;;10.04;100.00
18765;BME280;9511;54.242;12.448;2023-11-19T14:43:10;100042.34;;;10.05;100.00
18765;BME280;9511;54.242;12.448;2023-11-19T14:45:39;100031.69;;;9.99;100.00
18765;BME280;9511;54.242;12.448;2023-11-19T14:48:06;100030.00;;;10.04;100.00
18765;BME280;9511;54.242;12.448;2023-11-19T14:50:34;100035.22;;;10.01;100.00
18765;BME280;9511;54.242;12.448;2023-11-19T14:53:01;100032.50;;;9.96;100.00
18765;BME280;9511;54.242;12.448;2023-11-19T14:55:29;100032.44;;;9.92;100.00
18765;BME280;9511;54.242;12.448;2023-11-19T14:57:56;100028.00;;;9.88;100.00
18765;BME280;9511;54.242;12.448;2023-11-19T15:00:24;100027.06;;;9.85;100.00
18765;BME280;9511;54.242;12.448;2023-11-19T15:02:53;100027.91;;;9.84;100.00
18765;BME280;9511;54.242;12.448;2023-11-19T15:05:20;100020.81;;;9.80;100.00
18765;BME280;9511;54.242;12.448;2023-11-19T15:07:48;100035.84;;;9.84;100.00
18765;BME280;9511;54.242;12.448;2023-11-19T15:10:15;100034.06;;;9.83;100.00
18765;BME280;9511;54.242;12.448;2023-11-19T15:12:43;100033.16;;;9.81;100.00
18765;BME280;9511;54.242;12.448;2023-11-19T15:15:10;100042.88;;;9.84;100.00
18765;BME280;9511;54.242;12.448;2023-11-19T15:17:39;100036.72;;;9.83;100.00
18765;BME280;9511;54.242;12.448;2023-11-19T15:20:09;100041.97;;;9.82;100.00
18765;BME280;9511;54.242;12.448;2023-11-19T15:22:37;100035.81;;;9.83;100.00
18765;BME280;9511;54.242;12.448;2023-11-19T15:25:04;100032.28;;;9.81;100.00
18765;BME280;9511;54.242;12.448;2023-11-19T15:27:36;100029.50;;;9.73;100.00
18765;BME280;9511;54.242;12.448;2023-11-19T15:30:04;100028.59;;;9.73;100.00
18765;BME280;9511;54.242;12.448;2023-11-19T15:32:32;100031.22;;;9.71;100.00
18765;BME280;9511;54.242;12.448;2023-11-19T15:34:59;100033.78;;;9.65;100.00
18765;BME280;9511;54.242;12.448;2023-11-19T15:37:28;100027.56;;;9.63;100.00
18765;BME280;9511;54.242;12.448;2023-11-19T15:39:56;100024.88;;;9.60;100.00
18765;BME280;9511;54.242;12.448;2023-11-19T15:42:24;100029.19;;;9.55;100.00
18765;BME280;9511;54.242;12.448;2023-11-19T15:44:52;100029.16;;;9.52;100.00
18765;BME280;9511;54.242;12.448;2023-11-19T15:47:19;100030.97;;;9.56;100.00
18765;BME280;9511;54.242;12.448;2023-11-19T15:49:47;100038.00;;;9.55;100.00
18765;BME280;9511;54.242;12.448;2023-11-19T15:52:15;100039.66;;;9.49;100.00
18765;BME280;9511;54.242;12.448;2023-11-19T15:54:44;100048.44;;;9.48;100.00
18765;BME280;9511;54.242;12.448;2023-11-19T15:57:13;100055.38;;;9.43;100.00
18765;BME280;9511;54.242;12.448;2023-11-19T15:59:40;100049.19;;;9.41;100.00
18765;BME280;9511;54.242;12.448;2023-11-19T16:02:08;100050.00;;;9.37;100.00
18765;BME280;9511;54.242;12.448;2023-11-19T16:04:36;100055.31;;;9.40;100.00
18765;BME280;9511;54.242;12.448;2023-11-19T16:07:04;100057.03;;;9.38;100.00
18765;BME280;9511;54.242;12.448;2023-11-19T16:09:31;100057.03;;;9.38;100.00
18765;BME280;9511;54.242;12.448;2023-11-19T16:12:00;100058.88;;;9.42;100.00
18765;BME280;9511;54.242;12.448;2023-11-19T16:14:28;100061.47;;;9.40;100.00
18765;BME280;9511;54.242;12.448;2023-11-19T16:16:55;100059.66;;;9.36;100.00
18765;BME280;9511;54.242;12.448;2023-11-19T16:19:23;100062.31;;;9.38;100.00
18765;BME280;9511;54.242;12.448;2023-11-19T16:21:52;100063.19;;;9.38;100.00
18765;BME280;9511;54.242;12.448;2023-11-19T16:24:20;100065.88;;;9.40;100.00
18765;BME280;9511;54.242;12.448;2023-11-19T16:26:47;100057.88;;;9.35;100.00
18765;BME280;9511;54.242;12.448;2023-11-19T16:29:16;100067.59;;;9.38;100.00
18765;BME280;9511;54.242;12.448;2023-11-19T16:31:43;100071.09;;;9.35;100.00
18765;BME280;9511;54.242;12.448;2023-11-19T16:34:11;100065.81;;;9.37;100.00
18765;BME280;9511;54.242;12.448;2023-11-19T16:36:38;100072.81;;;9.35;100.00
18765;BME280;9511;54.242;12.448;2023-11-19T16:39:05;100089.56;;;9.37;100.00
18765;BME280;9511;54.242;12.448;2023-11-19T16:41:34;100081.59;;;9.34;100.00
18765;BME280;9511;54.242;12.448;2023-11-19T16:44:02;100080.78;;;9.36;100.00
18765;BME280;9511;54.242;12.448;2023-11-19T16:46:33;100083.34;;;9.35;100.00
18765;BME280;9511;54.242;12.448;2023-11-19T16:49:00;100082.53;;;9.37;100.00
18765;BME280;9511;54.242;12.448;2023-11-19T16:51:27;100079.94;;;9.39;100.00
18765;BME280;9511;54.242;12.448;2023-11-19T16:53:55;100079.81;;;9.32;100.00
18765;BME280;9511;54.242;12.448;2023-11-19T16:56:22;100079.94;;;9.40;100.00
18765;BME280;9511;54.242;12.448;2023-11-19T16:58:50;100087.88;;;9.40;100.00
18765;BME280;9511;54.242;12.448;2023-11-19T17:01:17;100079.16;;;9.46;100.00
18765;BME280;9511;54.242;12.448;2023-11-19T17:03:46;100087.16;;;9.49;100.00
18765;BME280;9511;54.242;12.448;2023-11-19T17:06:15;100092.44;;;9.49;100.00
18765;BME280;9511;54.242;12.448;2023-11-19T17:08:42;100095.09;;;9.49;100.00
18765;BME280;9511;54.242;12.448;2023-11-19T17:11:10;100092.34;;;9.43;100.00